createdAt,value
2023-02-14T00:01:29.769Z,-0.60
2023-02-14T00:04:00.740Z,-0.70
2023-02-14T00:06:32.901Z,-0.60
2023-02-14T00:09:00.927Z,-0.60
2023-02-14T00:11:29.046Z,-0.60
2023-02-14T00:14:15.796Z,-0.60
2023-02-14T00:16:44.296Z,-0.70
2023-02-14T00:19:14.028Z,-0.80
2023-02-14T00:21:42.573Z,-0.80
2023-02-14T00:24:13.018Z,-0.80
2023-02-14T00:26:42.450Z,-0.80
2023-02-14T00:29:13.504Z,-0.70
2023-02-14T00:31:42.363Z,-0.70
2023-02-14T00:34:11.212Z,-0.60
2023-02-14T00:36:39.367Z,-0.60
2023-02-14T00:39:09.451Z,-0.70
2023-02-14T00:41:39.918Z,-0.70
2023-02-14T00:44:09.387Z,-0.70
2023-02-14T00:46:37.172Z,-0.70
2023-02-14T00:49:05.954Z,-0.70
2023-02-14T00:51:33.589Z,-0.70
2023-02-14T00:54:03.427Z,-0.70
2023-02-14T00:56:32.451Z,-0.80
2023-02-14T00:59:00.134Z,-0.70
2023-02-14T01:01:27.966Z,-0.80
2023-02-14T01:03:55.869Z,-0.70
2023-02-14T01:06:23.702Z,-0.70
2023-02-14T01:08:51.469Z,-0.70
2023-02-14T01:11:22.188Z,-0.80
2023-02-14T01:13:51.669Z,-0.80
2023-02-14T01:16:23.786Z,-0.80
2023-02-14T01:18:51.802Z,-0.80
2023-02-14T01:21:39.977Z,-0.90
2023-02-14T01:24:08.386Z,-0.90
2023-02-14T01:26:36.443Z,-0.90
2023-02-14T01:29:05.333Z,-0.90
2023-02-14T01:31:37.829Z,-0.90
2023-02-14T01:34:08.277Z,-0.90
2023-02-14T01:36:39.402Z,-0.80
2023-02-14T01:39:11.568Z,-0.90
2023-02-14T01:41:41.486Z,-0.80
2023-02-14T01:44:28.978Z,-0.90
2023-02-14T01:46:58.375Z,-0.90
2023-02-14T01:49:38.832Z,-0.90
2023-02-14T01:52:12.365Z,-0.90
2023-02-14T01:54:46.338Z,-0.90
2023-02-14T01:57:17.778Z,-0.90
2023-02-14T02:00:20.018Z,-0.80
2023-02-14T02:02:47.551Z,-0.90
2023-02-14T02:05:23.918Z,-0.80
2023-02-14T02:07:56.825Z,-0.90
2023-02-14T02:10:25.515Z,-1.00
2023-02-14T02:12:53.916Z,-0.90
2023-02-14T02:15:26.351Z,-0.90
2023-02-14T02:17:54.818Z,-0.80
2023-02-14T02:20:51.867Z,-0.90
2023-02-14T02:23:37.772Z,-0.80
2023-02-14T02:26:40.141Z,-0.80
2023-02-14T02:29:34.229Z,-0.80
2023-02-14T02:32:25.661Z,-0.80
2023-02-14T02:34:59.263Z,-0.80
2023-02-14T02:37:29.841Z,-0.80
2023-02-14T02:40:21.709Z,-0.80
2023-02-14T02:42:57.775Z,-0.80
2023-02-14T02:46:00.403Z,-0.80
2023-02-14T02:48:36.408Z,-0.90
2023-02-14T02:51:26.858Z,-0.90
2023-02-14T02:54:03.928Z,-0.90
2023-02-14T02:56:46.501Z,-0.90
2023-02-14T02:59:28.288Z,-0.90
2023-02-14T03:02:01.664Z,-0.80
2023-02-14T03:04:53.145Z,-0.90
2023-02-14T03:07:40.448Z,-0.90
2023-02-14T03:10:26.851Z,-0.90
2023-02-14T03:13:14.046Z,-0.80
2023-02-14T03:15:53.665Z,-0.80
2023-02-14T03:18:43.591Z,-0.90
2023-02-14T03:21:36.393Z,-0.90
2023-02-14T03:24:47.419Z,-0.90
2023-02-14T03:27:29.436Z,-0.90
2023-02-14T03:30:12.296Z,-0.90
2023-02-14T03:32:58.641Z,-0.90
2023-02-14T03:35:37.094Z,-0.90
2023-02-14T03:38:11.470Z,-0.90
2023-02-14T03:40:43.753Z,-1.00
2023-02-14T03:43:51.299Z,-1.00
2023-02-14T03:46:28.526Z,-1.00
2023-02-14T03:49:01.779Z,-0.90
2023-02-14T03:51:34.709Z,-0.90
2023-02-14T03:54:06.722Z,-1.00
2023-02-14T03:56:52.416Z,-1.00
2023-02-14T03:59:23.911Z,-0.90
2023-02-14T04:02:10.163Z,-1.00
2023-02-14T04:04:43.867Z,-0.90
2023-02-14T04:07:14.051Z,-1.00
2023-02-14T04:09:42.638Z,-1.10
2023-02-14T04:12:15.028Z,-1.10
2023-02-14T04:14:42.834Z,-1.10
2023-02-14T04:17:29.135Z,-1.10
2023-02-14T04:19:56.936Z,-1.10
2023-02-14T04:22:24.814Z,-1.10
2023-02-14T04:24:52.827Z,-1.10
2023-02-14T04:27:20.531Z,-1.10
2023-02-14T04:29:50.597Z,-1.10
2023-02-14T04:32:21.814Z,-1.00
2023-02-14T04:34:49.520Z,-1.00
2023-02-14T04:37:20.732Z,-1.00
2023-02-14T04:39:48.389Z,-1.00
2023-02-14T04:42:16.073Z,-1.00
2023-02-14T04:44:46.150Z,-1.00
2023-02-14T04:47:15.637Z,-1.00
2023-02-14T04:49:43.422Z,-1.00
2023-02-14T04:52:11.100Z,-1.00
2023-02-14T04:54:40.896Z,-1.00
2023-02-14T04:57:11.481Z,-1.00
2023-02-14T04:59:38.996Z,-1.00
2023-02-14T05:02:07.047Z,-1.00
2023-02-14T05:04:35.619Z,-1.00
2023-02-14T05:07:03.196Z,-1.10
2023-02-14T05:09:33.672Z,-1.10
2023-02-14T05:12:01.240Z,-1.10
2023-02-14T05:14:28.993Z,-1.10
2023-02-14T05:16:57.180Z,-1.10
2023-02-14T05:19:25.015Z,-1.20
2023-02-14T05:21:52.696Z,-1.20
2023-02-14T05:24:20.495Z,-1.30
2023-02-14T05:26:48.143Z,-1.30
2023-02-14T05:29:15.991Z,-1.40
2023-02-14T05:31:44.289Z,-1.40
2023-02-14T05:34:12.292Z,-1.40
2023-02-14T05:36:39.765Z,-1.40
2023-02-14T05:39:08.087Z,-1.50
2023-02-14T05:41:35.574Z,-1.50
2023-02-14T05:44:03.102Z,-1.50
2023-02-14T05:46:30.728Z,-1.40
2023-02-14T05:49:00.200Z,-1.40
2023-02-14T05:51:27.876Z,-1.40
2023-02-14T05:53:59.987Z,-1.30
2023-02-14T05:56:27.722Z,-1.30
2023-02-14T05:58:55.294Z,-1.30
2023-02-14T06:01:23.258Z,-1.30
2023-02-14T06:03:51.257Z,-1.30
2023-02-14T06:06:19.146Z,-1.30
2023-02-14T06:08:46.889Z,-1.20
2023-02-14T06:11:14.525Z,-1.20
2023-02-14T06:13:42.088Z,-1.20
2023-02-14T06:16:09.744Z,-1.20
2023-02-14T06:18:37.836Z,-1.20
2023-02-14T06:22:19.638Z,-1.30
2023-02-14T06:24:47.124Z,-1.30
2023-02-14T06:27:14.788Z,-1.30
2023-02-14T06:29:42.367Z,-1.40
2023-02-14T06:32:10.370Z,-1.40
2023-02-14T06:34:39.911Z,-1.30
2023-02-14T06:37:08.475Z,-1.30
2023-02-14T06:39:36.371Z,-1.30
2023-02-14T06:42:04.079Z,-1.30
2023-02-14T06:44:31.642Z,-1.30
2023-02-14T06:47:01.700Z,-1.30
2023-02-14T06:49:29.255Z,-1.30
2023-02-14T06:53:05.840Z,-1.30
2023-02-14T06:55:33.635Z,-1.30
2023-02-14T06:58:01.264Z,-1.20
2023-02-14T07:00:28.764Z,-1.20
2023-02-14T07:02:56.795Z,-1.20
2023-02-14T07:05:24.390Z,-1.20
2023-02-14T07:07:55.276Z,-1.10
2023-02-14T07:10:23.460Z,-1.20
2023-02-14T07:12:52.736Z,-1.10
2023-02-14T07:15:27.861Z,-1.10
2023-02-14T07:17:56.521Z,-1.10
2023-02-14T07:20:27.260Z,-1.00
2023-02-14T07:22:55.483Z,-1.00
2023-02-14T07:25:23.168Z,-1.00
2023-02-14T07:27:50.936Z,-1.00
2023-02-14T07:30:18.986Z,-0.90
2023-02-14T07:32:46.678Z,-0.90
2023-02-14T07:35:15.365Z,-0.90
2023-02-14T07:37:46.660Z,-0.90
2023-02-14T07:40:15.514Z,-0.90
2023-02-14T07:42:44.862Z,-1.00
2023-02-14T07:45:21.977Z,-1.00
2023-02-14T07:47:51.469Z,-0.90
2023-02-14T07:50:19.972Z,-0.90
2023-02-14T07:52:48.262Z,-0.90
2023-02-14T07:55:16.668Z,-0.90
2023-02-14T07:57:44.259Z,-0.90
2023-02-14T08:00:12.748Z,-0.90
2023-02-14T08:02:40.370Z,-1.00
2023-02-14T08:05:08.361Z,-0.90
2023-02-14T08:07:36.565Z,-0.90
2023-02-14T08:10:04.507Z,-0.80
2023-02-14T08:12:50.400Z,-0.80
2023-02-14T08:15:36.744Z,-0.80
2023-02-14T08:18:04.616Z,-0.70
2023-02-14T08:20:32.451Z,-0.70
2023-02-14T08:23:00.007Z,-0.60
2023-02-14T08:25:27.720Z,-0.60
2023-02-14T08:27:55.821Z,-0.60
2023-02-14T08:30:26.140Z,-0.50
2023-02-14T08:32:53.912Z,-0.50
2023-02-14T08:35:21.635Z,-0.50
2023-02-14T08:37:49.279Z,-0.50
2023-02-14T08:40:16.882Z,-0.40
2023-02-14T08:42:44.718Z,-0.30
2023-02-14T08:45:12.257Z,-0.40
2023-02-14T08:47:40.669Z,-0.40
2023-02-14T08:50:13.851Z,-0.30
2023-02-14T08:52:43.882Z,-0.20
2023-02-14T08:55:13.542Z,-0.20
2023-02-14T08:57:41.400Z,-0.20
2023-02-14T09:00:10.078Z,-0.10
2023-02-14T09:02:37.851Z,-0.10
2023-02-14T09:05:06.246Z,-0.10
2023-02-14T09:07:36.885Z,0.00
2023-02-14T09:10:09.292Z,0.10
2023-02-14T09:12:42.085Z,0.20
2023-02-14T09:15:10.580Z,0.20
2023-02-14T09:17:38.629Z,0.30
2023-02-14T09:20:08.472Z,0.40
2023-02-14T09:22:36.466Z,0.40
2023-02-14T09:25:04.482Z,0.50
2023-02-14T09:27:32.736Z,0.50
2023-02-14T09:30:00.793Z,0.60
2023-02-14T09:32:29.370Z,0.60
2023-02-14T09:35:15.814Z,0.60
2023-02-14T09:38:01.795Z,0.70
2023-02-14T09:40:32.235Z,0.90
2023-02-14T09:43:13.323Z,0.90
2023-02-14T09:45:41.210Z,1.00
2023-02-14T09:48:21.222Z,1.20
2023-02-14T09:50:56.109Z,1.70
2023-02-14T09:53:34.982Z,1.70
2023-02-14T09:56:13.717Z,1.40
2023-02-14T09:59:02.172Z,1.10
2023-02-14T10:01:40.781Z,1.00
2023-02-14T10:04:27.429Z,1.20
2023-02-14T10:07:21.824Z,1.30
2023-02-14T10:10:10.433Z,1.20
2023-02-14T10:12:59.902Z,1.30
2023-02-14T10:15:39.174Z,1.60
2023-02-14T10:18:29.014Z,2.00
2023-02-14T10:20:59.389Z,2.30
2023-02-14T10:23:42.521Z,2.20
2023-02-14T10:26:12.401Z,2.10
2023-02-14T10:28:45.460Z,2.10
2023-02-14T10:31:19.237Z,2.10
2023-02-14T10:33:57.652Z,2.50
2023-02-14T10:36:49.744Z,2.70
2023-02-14T10:39:23.487Z,2.70
2023-02-14T10:42:05.202Z,2.70
2023-02-14T10:44:33.451Z,2.40
2023-02-14T10:47:22.283Z,2.10
2023-02-14T10:50:16.684Z,2.00
2023-02-14T10:53:02.408Z,2.10
2023-02-14T10:56:12.510Z,2.40
2023-02-14T10:58:42.792Z,2.90
2023-02-14T11:01:16.104Z,3.10
2023-02-14T11:03:58.797Z,3.50
2023-02-14T11:06:26.945Z,3.90
2023-02-14T11:08:57.189Z,4.20
2023-02-14T11:11:39.110Z,4.20
2023-02-14T11:14:23.274Z,3.90
2023-02-14T11:16:52.220Z,3.60
2023-02-14T11:19:25.395Z,3.20
2023-02-14T11:21:55.986Z,2.90
2023-02-14T11:24:35.318Z,2.80
2023-02-14T11:27:23.969Z,2.70
2023-02-14T11:29:54.520Z,2.90
2023-02-14T11:32:31.161Z,3.30
2023-02-14T11:35:07.115Z,3.50
2023-02-14T11:37:42.618Z,3.70
2023-02-14T11:40:29.064Z,3.80
2023-02-14T11:43:20.590Z,4.00
2023-02-14T11:45:49.498Z,4.10
2023-02-14T11:48:37.251Z,4.20
2023-02-14T11:51:14.626Z,4.40
2023-02-14T11:53:45.992Z,4.50
2023-02-14T11:56:19.959Z,4.60
2023-02-14T11:59:03.873Z,4.60
2023-02-14T12:01:35.065Z,4.50
2023-02-14T12:04:14.445Z,4.50
2023-02-14T12:06:44.689Z,4.80
2023-02-14T12:09:25.375Z,4.90
2023-02-14T12:12:03.001Z,5.10
2023-02-14T12:14:39.735Z,5.10
2023-02-14T12:17:19.037Z,5.20
2023-02-14T12:20:35.231Z,5.30
2023-02-14T12:23:19.871Z,5.50
2023-02-14T12:25:53.094Z,5.60
2023-02-14T12:28:28.309Z,5.60
2023-02-14T12:30:57.399Z,5.70
2023-02-14T12:33:26.096Z,5.80
2023-02-14T12:36:01.853Z,5.80
2023-02-14T12:38:30.634Z,5.90
2023-02-14T12:41:35.286Z,6.20
2023-02-14T12:44:51.260Z,6.50
2023-02-14T12:47:40.041Z,6.40
2023-02-14T12:50:34.323Z,6.70
2023-02-14T12:53:17.213Z,6.80
2023-02-14T12:56:04.017Z,6.70
2023-02-14T12:58:46.029Z,6.90
2023-02-14T13:01:43.214Z,6.90
2023-02-14T13:04:32.954Z,6.80
2023-02-14T13:07:14.462Z,6.80
2023-02-14T13:10:19.412Z,6.90
2023-02-14T13:13:05.774Z,7.10
2023-02-14T13:16:00.481Z,7.10
2023-02-14T13:18:51.858Z,7.10
2023-02-14T13:21:24.572Z,7.10
2023-02-14T13:23:56.525Z,7.10
2023-02-14T13:26:37.917Z,7.10
2023-02-14T13:29:11.551Z,7.10
2023-02-14T13:31:41.506Z,7.20
2023-02-14T13:34:33.658Z,7.40
2023-02-14T13:37:04.634Z,7.30
2023-02-14T13:39:44.085Z,7.40
2023-02-14T13:42:13.216Z,7.40
2023-02-14T13:44:50.009Z,7.40
2023-02-14T13:47:26.120Z,7.60
2023-02-14T13:49:59.334Z,7.80
2023-02-14T13:52:49.650Z,8.00
2023-02-14T13:55:24.781Z,7.90
2023-02-14T13:58:03.574Z,7.90
2023-02-14T14:00:42.869Z,8.00
2023-02-14T14:03:30.441Z,8.00
2023-02-14T14:06:24.437Z,7.80
2023-02-14T14:08:56.502Z,7.50
2023-02-14T14:11:24.065Z,7.60
2023-02-14T14:13:58.594Z,7.80
2023-02-14T14:16:29.410Z,7.60
2023-02-14T14:19:09.387Z,7.70
2023-02-14T14:22:14.836Z,7.70
2023-02-14T14:24:55.103Z,7.50
2023-02-14T14:27:30.804Z,7.60
2023-02-14T14:30:02.553Z,7.50
2023-02-14T14:32:30.671Z,7.20
2023-02-14T14:34:59.511Z,7.10
2023-02-14T14:37:46.630Z,7.10
2023-02-14T14:40:27.322Z,7.00
2023-02-14T14:43:00.247Z,6.80
2023-02-14T14:45:34.133Z,6.50
2023-02-14T14:48:10.469Z,6.30
2023-02-14T14:50:47.146Z,6.10
2023-02-14T14:53:38.372Z,6.00
2023-02-14T14:56:06.025Z,5.90
2023-02-14T14:58:37.899Z,5.90
2023-02-14T15:01:08.374Z,5.80
2023-02-14T15:03:35.966Z,5.70
2023-02-14T15:06:14.637Z,5.50
2023-02-14T15:08:42.640Z,5.50
2023-02-14T15:11:45.026Z,5.40
2023-02-14T15:14:24.289Z,5.30
2023-02-14T15:16:58.023Z,5.10
2023-02-14T15:19:43.505Z,5.10
2023-02-14T15:22:42.355Z,5.00
2023-02-14T15:25:31.454Z,4.90
2023-02-14T15:27:59.464Z,4.80
2023-02-14T15:30:38.073Z,4.70
2023-02-14T15:33:07.304Z,4.50
2023-02-14T15:35:42.510Z,4.30
2023-02-14T15:38:12.121Z,4.20
2023-02-14T15:40:40.422Z,4.20
2023-02-14T15:43:22.216Z,4.10
2023-02-14T15:45:52.948Z,4.00
2023-02-14T15:48:36.790Z,3.90
2023-02-14T15:51:17.607Z,3.80
2023-02-14T15:54:18.835Z,3.60
2023-02-14T15:56:53.097Z,3.50
2023-02-14T15:59:29.664Z,3.40
2023-02-14T16:02:03.985Z,3.40
2023-02-14T16:04:34.526Z,3.30
2023-02-14T16:07:29.424Z,3.20
2023-02-14T16:10:19.509Z,3.10
2023-02-14T16:12:58.295Z,2.90
2023-02-14T16:15:35.035Z,2.70
2023-02-14T16:18:08.300Z,2.60
2023-02-14T16:20:35.949Z,2.50
2023-02-14T16:23:22.492Z,2.40
2023-02-14T16:25:51.634Z,2.30
2023-02-14T16:28:19.621Z,2.10
2023-02-14T16:30:54.114Z,2.00
2023-02-14T16:33:27.673Z,1.90
2023-02-14T16:36:25.372Z,1.80
2023-02-14T16:38:53.345Z,1.60
2023-02-14T16:41:26.084Z,1.40
2023-02-14T16:43:54.722Z,1.30
2023-02-14T16:46:30.386Z,1.20
2023-02-14T16:48:59.250Z,1.20
2023-02-14T16:51:34.051Z,1.10
2023-02-14T16:54:06.284Z,1.00
2023-02-14T16:56:45.858Z,0.90
2023-02-14T16:59:14.043Z,0.80
2023-02-14T17:01:41.749Z,0.60
2023-02-14T17:04:10.071Z,0.40
2023-02-14T17:06:42.236Z,0.20
2023-02-14T17:09:12.679Z,0.10
2023-02-14T17:11:46.797Z,0.00
2023-02-14T17:14:21.329Z,0.00
2023-02-14T17:16:49.430Z,-0.10
2023-02-14T17:19:18.050Z,-0.20
2023-02-14T17:21:46.042Z,-0.20
2023-02-14T17:24:13.604Z,-0.20
2023-02-14T17:26:41.270Z,-0.30
2023-02-14T17:29:09.649Z,-0.30
2023-02-14T17:31:37.578Z,-0.30
2023-02-14T17:34:05.281Z,-0.60
2023-02-14T17:36:33.136Z,-0.80
2023-02-14T17:39:00.975Z,-0.90
2023-02-14T17:41:29.890Z,-0.80
2023-02-14T17:44:00.415Z,-0.70
2023-02-14T17:46:29.441Z,-0.70
2023-02-14T17:48:58.242Z,-0.70
2023-02-14T17:51:25.826Z,-0.70
2023-02-14T17:53:53.332Z,-0.80
2023-02-14T17:56:24.160Z,-0.80
2023-02-14T17:58:53.559Z,-0.80
2023-02-14T18:01:24.425Z,-0.80
2023-02-14T18:03:54.115Z,-0.80
2023-02-14T18:06:22.374Z,-0.70
2023-02-14T18:08:53.156Z,-0.70
2023-02-14T18:11:21.388Z,-0.90
2023-02-14T18:13:50.476Z,-0.90
2023-02-14T18:16:19.770Z,-1.00
2023-02-14T18:18:47.854Z,-1.00
2023-02-14T18:21:18.897Z,-1.00
2023-02-14T18:23:46.956Z,-1.00
2023-02-14T18:26:17.589Z,-1.10
2023-02-14T18:28:46.379Z,-1.00
2023-02-14T18:31:17.357Z,-1.00
2023-02-14T18:33:46.303Z,-1.00
2023-02-14T18:36:16.834Z,-1.10
2023-02-14T18:38:46.953Z,-1.20
2023-02-14T18:41:20.896Z,-1.20
2023-02-14T18:43:49.369Z,-1.20
2023-02-14T18:46:20.892Z,-1.20
2023-02-14T18:48:48.651Z,-1.30
2023-02-14T18:51:19.689Z,-1.30
2023-02-14T18:53:48.677Z,-1.30
2023-02-14T18:56:22.395Z,-1.30
2023-02-14T18:58:56.496Z,-1.30
2023-02-14T19:01:29.168Z,-1.30
2023-02-14T19:03:59.821Z,-1.30
2023-02-14T19:06:29.684Z,-1.40
2023-02-14T19:08:57.551Z,-1.30
2023-02-14T19:11:28.673Z,-1.40
2023-02-14T19:13:58.421Z,-1.30
2023-02-14T19:16:28.993Z,-1.40
2023-02-14T19:18:56.800Z,-1.50
2023-02-14T19:21:28.700Z,-1.50
2023-02-14T19:23:57.684Z,-1.50
2023-02-14T19:26:35.177Z,-1.40
2023-02-14T19:29:05.441Z,-1.50
2023-02-14T19:31:36.531Z,-1.50
2023-02-14T19:34:06.384Z,-1.50
2023-02-14T19:36:37.510Z,-1.50
2023-02-14T19:39:05.539Z,-1.50
2023-02-14T19:41:37.419Z,-1.50
2023-02-14T19:44:06.649Z,-1.50
2023-02-14T19:46:34.535Z,-1.50
2023-02-14T19:49:02.226Z,-1.60
2023-02-14T19:51:36.569Z,-1.60
2023-02-14T19:54:06.042Z,-1.70
2023-02-14T19:56:46.275Z,-1.70
2023-02-14T19:59:19.801Z,-1.70
2023-02-14T20:01:53.065Z,-1.60
2023-02-14T20:04:24.159Z,-1.60
2023-02-14T20:06:52.342Z,-1.60
2023-02-14T20:09:21.851Z,-1.60
2023-02-14T20:11:54.667Z,-1.60
2023-02-14T20:14:35.919Z,-1.70
2023-02-14T20:17:08.818Z,-1.70
2023-02-14T20:19:37.977Z,-1.70
2023-02-14T20:22:14.170Z,-1.70
2023-02-14T20:24:41.902Z,-1.60
2023-02-14T20:27:10.662Z,-1.70
2023-02-14T20:29:41.759Z,-1.90
2023-02-14T20:32:10.106Z,-1.90
2023-02-14T20:34:38.002Z,-1.90
2023-02-14T20:37:06.503Z,-1.90
2023-02-14T20:39:36.375Z,-2.00
2023-02-14T20:42:05.379Z,-2.00
2023-02-14T20:44:34.186Z,-2.00
2023-02-14T20:47:03.202Z,-2.00
2023-02-14T20:49:40.386Z,-1.90
2023-02-14T20:52:08.734Z,-1.90
2023-02-14T20:54:38.967Z,-1.90
2023-02-14T20:57:06.576Z,-1.90
2023-02-14T20:59:34.416Z,-1.80
2023-02-14T21:02:01.999Z,-1.80
2023-02-14T21:04:30.789Z,-1.80
2023-02-14T21:07:00.243Z,-1.80
2023-02-14T21:09:28.569Z,-1.80
2023-02-14T21:11:58.522Z,-1.80
2023-02-14T21:14:28.827Z,-1.90
2023-02-14T21:16:56.475Z,-1.90
2023-02-14T21:19:24.209Z,-1.90
2023-02-14T21:21:52.177Z,-1.80
2023-02-14T21:24:20.030Z,-1.80
2023-02-14T21:26:48.288Z,-1.90
2023-02-14T21:29:16.005Z,-1.90
2023-02-14T21:31:43.865Z,-1.90
2023-02-14T21:34:14.080Z,-2.00
2023-02-14T21:36:42.466Z,-2.00
2023-02-14T21:39:09.894Z,-2.00
2023-02-14T21:41:37.766Z,-2.00
2023-02-14T21:44:06.488Z,-2.00
2023-02-14T21:46:38.409Z,-2.00
2023-02-14T21:49:24.855Z,-2.00
2023-02-14T21:51:52.341Z,-1.90
2023-02-14T21:54:19.892Z,-1.90
2023-02-14T21:56:49.298Z,-1.90
2023-02-14T21:59:16.875Z,-1.90
2023-02-14T22:01:44.806Z,-1.90
2023-02-14T22:04:12.886Z,-1.90
2023-02-14T22:06:42.761Z,-1.90
2023-02-14T22:09:12.620Z,-2.00
2023-02-14T22:11:40.477Z,-2.00
2023-02-14T22:14:08.547Z,-2.10
2023-02-14T22:16:39.976Z,-2.10
2023-02-14T22:19:08.495Z,-2.10
2023-02-14T22:23:13.493Z,-2.10
2023-02-14T22:25:41.261Z,-2.10
2023-02-14T22:28:09.430Z,-2.20
2023-02-14T22:30:36.912Z,-2.20
2023-02-14T22:33:04.371Z,-2.20
2023-02-14T22:35:32.412Z,-2.20
2023-02-14T22:38:00.102Z,-2.20
2023-02-14T22:40:27.693Z,-2.10
2023-02-14T22:42:55.195Z,-2.10
2023-02-14T22:45:22.716Z,-2.10
2023-02-14T22:47:50.206Z,-2.10
2023-02-14T22:50:18.057Z,-2.10
2023-02-14T22:52:45.624Z,-2.10
2023-02-14T22:55:13.262Z,-2.10
2023-02-14T22:57:40.909Z,-2.10
2023-02-14T23:00:11.930Z,-2.10
2023-02-14T23:02:40.122Z,-2.10
2023-02-14T23:05:08.241Z,-2.00
2023-02-14T23:07:36.141Z,-2.00
2023-02-14T23:10:03.961Z,-2.00
2023-02-14T23:12:50.063Z,-2.00
2023-02-14T23:15:36.413Z,-2.00
2023-02-14T23:18:22.756Z,-2.00
2023-02-14T23:21:11.466Z,-2.10
2023-02-14T23:23:39.373Z,-2.20
2023-02-14T23:26:07.099Z,-2.20
2023-02-14T23:28:35.248Z,-2.10
2023-02-14T23:31:03.210Z,-2.10
2023-02-14T23:33:36.144Z,-2.10
2023-02-14T23:36:04.827Z,-2.10
2023-02-14T23:38:32.584Z,-2.00
2023-02-14T23:41:27.919Z,-2.00
2023-02-14T23:43:55.688Z,-2.00
2023-02-14T23:46:23.655Z,-2.00
2023-02-14T23:48:51.414Z,-2.00
2023-02-14T23:51:19.070Z,-2.10
2023-02-14T23:53:47.035Z,-2.00
2023-02-14T23:56:14.669Z,-2.00
2023-02-14T23:58:43.356Z,-2.10
